Terminal Aerodrome Forecast
Issued by NWS Duluth, MN

Home | Current Version | Previous Version | Text Only | Print | Product List | Glossary On
Versions: 1 2 3 4 5 6 7 8 9 10 11 12 13 14 15 16 17 18 19 20 21 22 23
000
FTUS43 KDLH 222300 RRA
TAFINL
TAF
KINL 222344Z 2300/2324 12004KT P6SM SCT010
     FM230600 16006KT 4SM BR OVC008
      TEMPO 2308/2312 2SM -FZDZ OVC005
     FM231600 22007KT 5SM BR BKN017=

USA.gov is the U.S. government's official web portal to all federal, state and local government web resources and services.